createdAt,value
2023-02-05T00:01:38.338Z,68.58
2023-02-05T00:04:07.328Z,68.82
2023-02-05T00:06:36.492Z,69.08
2023-02-05T00:09:05.477Z,69.53
2023-02-05T00:11:34.165Z,69.75
2023-02-05T00:14:03.000Z,69.43
2023-02-05T00:16:35.733Z,70.18
2023-02-05T00:19:04.540Z,70.91
2023-02-05T00:21:33.295Z,70.39
2023-02-05T00:24:02.096Z,69.93
2023-02-05T00:26:30.757Z,70.51
2023-02-05T00:28:59.498Z,70.67
2023-02-05T00:31:29.778Z,70.58
2023-02-05T00:34:00.132Z,70.14
2023-02-05T00:36:28.998Z,70.18
2023-02-05T00:38:57.758Z,71.77
2023-02-05T00:41:26.501Z,72.18
2023-02-05T00:43:55.253Z,73.46
2023-02-05T00:46:24.047Z,73.14
2023-02-05T00:48:54.895Z,72.60
2023-02-05T00:51:44.872Z,73.42
2023-02-05T00:54:13.707Z,73.17
2023-02-05T00:56:42.459Z,73.96
2023-02-05T00:59:11.260Z,73.59
2023-02-05T01:01:40.103Z,73.81
2023-02-05T01:04:08.853Z,73.73
2023-02-05T01:06:37.536Z,74.12
2023-02-05T01:09:07.721Z,74.52
2023-02-05T01:11:36.535Z,74.24
2023-02-05T01:14:05.423Z,73.27
2023-02-05T01:16:34.257Z,72.73
2023-02-05T01:19:03.251Z,72.46
2023-02-05T01:21:32.084Z,72.44
2023-02-05T01:24:01.792Z,72.29
2023-02-05T01:26:32.091Z,73.02
2023-02-05T01:29:17.231Z,74.17
2023-02-05T01:31:46.339Z,74.25
2023-02-05T01:34:15.486Z,74.83
2023-02-05T01:36:44.811Z,74.42
2023-02-05T01:39:13.576Z,75.12
2023-02-05T01:41:45.709Z,74.61
2023-02-05T01:44:18.613Z,73.68
2023-02-05T01:46:49.439Z,73.25
2023-02-05T01:49:26.469Z,72.88
2023-02-05T01:52:00.492Z,73.08
2023-02-05T01:54:33.836Z,74.46
2023-02-05T01:57:09.038Z,75.33
2023-02-05T01:59:42.255Z,75.51
2023-02-05T02:02:11.549Z,75.45
2023-02-05T02:09:30.956Z,73.71
2023-02-05T02:12:03.666Z,73.38
2023-02-05T02:14:37.454Z,73.75
2023-02-05T02:17:10.393Z,74.09
2023-02-05T02:19:47.752Z,73.74
2023-02-05T02:23:08.216Z,73.20
2023-02-05T02:26:25.219Z,74.85
2023-02-05T02:29:01.794Z,74.94
2023-02-05T02:31:39.865Z,75.01
2023-02-05T02:34:19.603Z,76.09
2023-02-05T02:36:58.336Z,76.01
2023-02-05T02:39:33.594Z,74.86
2023-02-05T02:42:11.143Z,74.72
2023-02-05T02:44:50.101Z,75.46
2023-02-05T02:47:23.802Z,76.42
2023-02-05T02:49:57.902Z,76.79
2023-02-05T02:52:56.785Z,75.17
2023-02-05T02:55:27.913Z,75.13
2023-02-05T02:57:59.193Z,74.26
2023-02-05T03:00:31.222Z,74.17
2023-02-05T03:03:08.271Z,74.58
2023-02-05T03:05:39.436Z,75.63
2023-02-05T03:08:18.268Z,75.63
2023-02-05T03:10:55.306Z,74.62
2023-02-05T03:13:24.326Z,74.45
2023-02-05T03:20:44.308Z,73.44
2023-02-05T03:23:13.399Z,74.15
2023-02-05T03:25:42.263Z,75.38
2023-02-05T03:28:12.624Z,75.69
2023-02-05T03:30:56.408Z,75.29
2023-02-05T03:33:44.887Z,74.27
2023-02-05T03:36:27.648Z,73.88
2023-02-05T03:39:20.353Z,73.53
2023-02-05T03:42:09.893Z,73.96
2023-02-05T03:45:20.656Z,74.42
2023-02-05T03:48:23.128Z,75.01
2023-02-05T03:52:17.164Z,74.96
2023-02-05T03:55:00.942Z,76.17
2023-02-05T03:57:40.162Z,75.13
2023-02-05T04:00:12.488Z,74.28
2023-02-05T04:02:47.273Z,73.92
2023-02-05T04:09:49.711Z,75.00
2023-02-05T04:12:18.701Z,76.27
2023-02-05T04:14:48.516Z,76.36
2023-02-05T04:17:17.396Z,75.36
2023-02-05T04:19:46.814Z,74.32
2023-02-05T04:22:17.120Z,74.14
2023-02-05T04:25:20.726Z,73.63
2023-02-05T04:27:51.934Z,73.24
2023-02-05T04:30:21.782Z,73.22
2023-02-05T04:32:50.721Z,73.28
2023-02-05T04:35:20.309Z,73.28
2023-02-05T04:37:50.404Z,73.21
2023-02-05T04:40:21.540Z,74.04
2023-02-05T04:42:51.031Z,73.74
2023-02-05T04:45:20.014Z,73.51
2023-02-05T04:47:48.967Z,73.25
2023-02-05T04:50:18.530Z,72.65
2023-02-05T04:52:47.225Z,73.40
2023-02-05T04:55:16.537Z,73.46
2023-02-05T04:57:52.516Z,73.04
2023-02-05T05:00:22.366Z,73.83
2023-02-05T05:02:51.392Z,74.49
2023-02-05T05:05:20.881Z,74.67
2023-02-05T05:07:57.635Z,74.21
2023-02-05T05:10:27.406Z,73.62
2023-02-05T05:12:57.806Z,73.16
2023-02-05T05:15:26.754Z,72.66
2023-02-05T05:18:03.549Z,72.51
2023-02-05T05:26:16.654Z,72.63
2023-02-05T05:28:47.177Z,74.08
2023-02-05T05:31:20.057Z,74.10
2023-02-05T05:33:58.286Z,73.44
2023-02-05T05:36:37.426Z,73.31
2023-02-05T05:42:30.509Z,74.81
2023-02-05T05:45:53.758Z,73.82
2023-02-05T05:48:22.922Z,73.81
2023-02-05T05:50:52.253Z,74.22
2023-02-05T05:53:21.158Z,74.07
2023-02-05T05:55:56.543Z,74.15
2023-02-05T05:58:26.108Z,73.87
2023-02-05T06:00:56.808Z,73.66
2023-02-05T06:03:27.100Z,73.60
2023-02-05T06:05:56.606Z,73.56
2023-02-05T06:08:25.506Z,74.70
2023-02-05T06:10:55.666Z,74.53
2023-02-05T06:13:25.010Z,74.29
2023-02-05T06:16:24.675Z,74.56
2023-02-05T06:18:53.977Z,74.03
2023-02-05T06:21:23.371Z,75.02
2023-02-05T06:28:43.098Z,74.28
2023-02-05T06:31:16.046Z,74.20
2023-02-05T06:33:46.598Z,74.47
2023-02-05T06:36:18.451Z,74.34
2023-02-05T06:38:58.158Z,74.29
2023-02-05T06:41:27.240Z,75.20
2023-02-05T06:43:56.365Z,75.98
2023-02-05T06:46:43.187Z,75.44
2023-02-05T06:51:14.467Z,76.08
2023-02-05T06:53:57.234Z,75.95
2023-02-05T07:00:48.680Z,75.23
2023-02-05T07:03:17.468Z,74.87
2023-02-05T07:05:46.324Z,74.95
2023-02-05T07:08:46.976Z,74.89
2023-02-05T07:11:15.725Z,74.96
2023-02-05T07:13:44.505Z,74.94
2023-02-05T07:16:18.531Z,75.10
2023-02-05T07:18:47.548Z,74.62
2023-02-05T07:21:18.506Z,74.68
2023-02-05T07:23:51.118Z,74.66
2023-02-05T07:26:32.204Z,74.95
2023-02-05T07:29:01.050Z,75.17
2023-02-05T07:31:35.047Z,74.98
2023-02-05T07:34:04.327Z,75.18
2023-02-05T07:36:33.131Z,75.02
2023-02-05T07:39:03.343Z,74.79
2023-02-05T07:41:32.124Z,74.95
2023-02-05T07:44:00.916Z,74.78
2023-02-05T07:46:29.769Z,75.14
2023-02-05T07:48:58.582Z,75.05
2023-02-05T07:51:27.422Z,75.11
2023-02-05T07:53:56.099Z,74.68
2023-02-05T07:56:40.207Z,74.22
2023-02-05T07:59:09.452Z,74.34
2023-02-05T08:01:38.401Z,74.51
2023-02-05T08:04:07.375Z,73.88
2023-02-05T08:06:47.638Z,74.37
2023-02-05T08:09:16.979Z,73.71
2023-02-05T08:11:54.352Z,73.42
2023-02-05T08:14:23.196Z,72.71
2023-02-05T08:16:52.050Z,72.35
2023-02-05T08:19:20.981Z,72.14
2023-02-05T08:21:49.696Z,72.09
2023-02-05T08:24:19.361Z,72.14
2023-02-05T08:26:48.480Z,72.38
2023-02-05T08:29:18.946Z,72.42
2023-02-05T08:31:47.869Z,72.73
2023-02-05T08:34:19.283Z,72.08
2023-02-05T08:36:49.546Z,72.05
2023-02-05T08:39:30.572Z,71.58
2023-02-05T08:41:59.407Z,71.53
2023-02-05T08:44:30.034Z,71.54
2023-02-05T08:46:58.795Z,71.44
2023-02-05T08:49:54.703Z,71.03
2023-02-05T08:52:25.450Z,71.00
2023-02-05T08:54:54.451Z,70.97
2023-02-05T08:57:23.372Z,71.54
2023-02-05T08:59:53.747Z,70.05
2023-02-05T09:02:22.536Z,69.87
2023-02-05T09:05:01.839Z,69.23
2023-02-05T09:07:36.578Z,69.20
2023-02-05T09:10:05.621Z,69.45
2023-02-05T09:12:34.318Z,69.15
2023-02-05T09:15:07.133Z,69.11
2023-02-05T09:17:43.490Z,68.65
2023-02-05T09:20:14.090Z,68.47
2023-02-05T09:22:43.061Z,67.94
2023-02-05T09:25:12.254Z,68.87
2023-02-05T09:27:41.196Z,68.07
2023-02-05T09:30:13.774Z,67.04
2023-02-05T09:32:42.499Z,65.82
2023-02-05T09:35:11.190Z,66.17
2023-02-05T09:37:40.333Z,66.41
2023-02-05T09:40:20.995Z,66.90
2023-02-05T09:43:04.558Z,66.54
2023-02-05T09:45:59.169Z,67.42
2023-02-05T09:48:50.476Z,66.50
2023-02-05T09:51:26.860Z,66.73
2023-02-05T09:54:05.846Z,65.59
2023-02-05T09:56:36.989Z,65.94
2023-02-05T09:59:06.982Z,65.01
2023-02-05T10:01:47.373Z,64.92
2023-02-05T10:04:16.454Z,65.35
2023-02-05T10:07:20.041Z,65.42
2023-02-05T10:10:22.683Z,65.14
2023-02-05T10:13:33.410Z,64.85
2023-02-05T10:16:43.308Z,64.75
2023-02-05T10:19:41.268Z,65.58
2023-02-05T10:22:23.811Z,65.08
2023-02-05T10:25:34.636Z,64.06
2023-02-05T10:28:21.604Z,65.24
2023-02-05T10:30:59.636Z,64.35
2023-02-05T10:33:48.165Z,64.37
2023-02-05T10:36:24.046Z,64.25
2023-02-05T10:38:57.173Z,63.80
2023-02-05T10:41:33.415Z,63.63
2023-02-05T10:44:14.887Z,62.87
2023-02-05T10:46:51.737Z,63.00
2023-02-05T10:49:28.065Z,62.38
2023-02-05T10:51:58.190Z,61.12
2023-02-05T10:54:31.279Z,61.40
2023-02-05T10:57:01.772Z,62.03
2023-02-05T10:59:34.820Z,61.39
2023-02-05T11:02:11.796Z,61.55
2023-02-05T11:04:47.429Z,61.35
2023-02-05T11:07:28.554Z,61.40
2023-02-05T11:09:59.275Z,62.07
2023-02-05T11:12:32.827Z,59.65
2023-02-05T11:15:04.078Z,58.31
2023-02-05T11:17:37.838Z,58.99
2023-02-05T11:20:23.089Z,58.96
2023-02-05T11:23:09.549Z,59.29
2023-02-05T11:25:38.410Z,59.03
2023-02-05T11:31:28.729Z,58.05
2023-02-05T11:34:18.412Z,57.14
2023-02-05T11:36:55.153Z,55.46
2023-02-05T11:39:36.602Z,54.71
2023-02-05T11:42:17.256Z,54.74
2023-02-05T11:44:59.408Z,54.13
2023-02-05T11:47:36.435Z,54.53
2023-02-05T11:50:19.371Z,53.42
2023-02-05T11:52:50.947Z,55.49
2023-02-05T11:55:33.030Z,55.76
2023-02-05T11:58:06.208Z,56.24
2023-02-05T12:00:38.954Z,56.09
2023-02-05T12:03:19.919Z,55.74
2023-02-05T12:05:55.548Z,56.56
2023-02-05T12:08:40.269Z,55.84
2023-02-05T12:11:58.325Z,55.25
2023-02-05T12:14:41.333Z,55.45
2023-02-05T12:17:33.174Z,55.39
2023-02-05T12:20:20.844Z,56.11
2023-02-05T12:28:37.409Z,54.23
2023-02-05T12:31:25.306Z,55.44
2023-02-05T12:34:17.460Z,54.45
2023-02-05T12:37:10.176Z,53.96
2023-02-05T12:39:52.954Z,54.17
2023-02-05T12:42:33.828Z,53.99
2023-02-05T12:45:33.703Z,53.43
2023-02-05T12:48:22.517Z,53.87
2023-02-05T12:51:08.755Z,53.55
2023-02-05T12:54:02.355Z,52.30
2023-02-05T12:56:55.456Z,51.71
2023-02-05T12:59:36.419Z,52.51
2023-02-05T13:02:21.125Z,51.41
2023-02-05T13:05:01.582Z,52.45
2023-02-05T13:07:37.871Z,50.42
2023-02-05T13:10:17.051Z,50.14
2023-02-05T13:12:52.106Z,49.92
2023-02-05T13:15:24.408Z,50.10
2023-02-05T13:18:02.576Z,50.13
2023-02-05T13:20:58.306Z,49.96
2023-02-05T13:23:46.028Z,47.93
2023-02-05T13:26:36.884Z,47.39
2023-02-05T13:29:13.428Z,47.47
2023-02-05T13:31:51.233Z,48.19
2023-02-05T13:34:22.993Z,47.56
2023-02-05T13:37:32.033Z,47.09
2023-02-05T13:40:57.235Z,47.61
2023-02-05T13:44:11.978Z,45.61
2023-02-05T13:47:25.371Z,45.42
2023-02-05T13:50:45.889Z,44.44
2023-02-05T13:53:43.930Z,45.33
2023-02-05T13:56:44.755Z,45.74
2023-02-05T13:59:23.700Z,45.82
2023-02-05T14:01:58.091Z,44.15
2023-02-05T14:04:32.612Z,45.46
2023-02-05T14:07:09.681Z,44.44
2023-02-05T14:09:44.545Z,44.89
2023-02-05T14:12:24.119Z,45.36
2023-02-05T14:15:36.809Z,44.30
2023-02-05T14:18:06.193Z,44.37
2023-02-05T14:20:40.431Z,45.81
2023-02-05T14:23:59.039Z,45.40
2023-02-05T14:26:51.722Z,46.49
2023-02-05T14:29:42.306Z,46.13
2023-02-05T14:32:13.540Z,46.00
2023-02-05T14:35:02.226Z,45.54
2023-02-05T14:37:43.470Z,45.99
2023-02-05T14:40:28.921Z,46.37
2023-02-05T14:43:10.393Z,45.71
2023-02-05T14:45:47.960Z,47.29
2023-02-05T14:48:28.464Z,48.38
2023-02-05T14:51:11.188Z,47.78
2023-02-05T14:53:42.521Z,47.87
2023-02-05T14:56:31.764Z,48.23
2023-02-05T14:59:07.386Z,48.08
2023-02-05T15:01:54.246Z,49.07
2023-02-05T15:04:52.885Z,49.86
2023-02-05T15:07:28.901Z,50.07
2023-02-05T15:10:04.489Z,51.77
2023-02-05T15:12:58.057Z,50.16
2023-02-05T15:15:33.684Z,50.11
2023-02-05T15:18:16.131Z,51.94
2023-02-05T15:20:50.433Z,51.16
2023-02-05T15:23:36.435Z,52.35
2023-02-05T15:26:16.745Z,51.75
2023-02-05T15:29:03.511Z,49.81
2023-02-05T15:31:45.836Z,50.31
2023-02-05T15:34:37.501Z,52.34
2023-02-05T15:37:22.291Z,51.83
2023-02-05T15:39:56.913Z,51.46
2023-02-05T15:42:36.050Z,51.28
2023-02-05T15:45:30.121Z,51.92
2023-02-05T15:48:04.445Z,52.84
2023-02-05T15:50:40.066Z,53.12
2023-02-05T15:53:29.224Z,54.76
2023-02-05T15:56:08.198Z,55.76
2023-02-05T15:58:38.356Z,57.27
2023-02-05T16:01:09.392Z,57.57
2023-02-05T16:03:40.128Z,58.09
2023-02-05T16:06:22.099Z,58.41
2023-02-05T16:09:02.572Z,57.22
2023-02-05T16:11:35.776Z,54.65
2023-02-05T16:14:15.035Z,55.58
2023-02-05T16:17:04.986Z,56.33
2023-02-05T16:19:45.388Z,59.81
2023-02-05T16:22:30.669Z,59.13
2023-02-05T16:25:07.992Z,59.38
2023-02-05T16:27:45.407Z,60.35
2023-02-05T16:30:31.108Z,61.04
2023-02-05T16:33:05.275Z,60.74
2023-02-05T16:35:40.509Z,61.96
2023-02-05T16:38:21.224Z,62.44
2023-02-05T16:40:58.700Z,63.87
2023-02-05T16:43:38.849Z,62.82
2023-02-05T16:46:42.693Z,62.40
2023-02-05T16:52:46.391Z,62.74
2023-02-05T16:55:44.871Z,63.12
2023-02-05T16:58:25.348Z,63.16
2023-02-05T17:01:07.065Z,62.76
2023-02-05T17:03:43.272Z,63.85
2023-02-05T17:06:17.517Z,64.09
2023-02-05T17:09:05.424Z,64.11
2023-02-05T17:11:46.818Z,64.39
2023-02-05T17:14:32.410Z,63.97
2023-02-05T17:17:21.883Z,64.72
2023-02-05T17:20:35.898Z,65.62
2023-02-05T17:23:15.527Z,66.32
2023-02-05T17:26:01.038Z,66.46
2023-02-05T17:28:46.076Z,66.65
2023-02-05T17:31:25.371Z,67.92
2023-02-05T17:36:54.646Z,67.18
2023-02-05T17:39:27.545Z,67.00
2023-02-05T17:42:11.992Z,66.94
2023-02-05T17:44:43.434Z,67.82
2023-02-05T17:47:13.078Z,67.37
2023-02-05T17:49:42.045Z,67.35
2023-02-05T17:52:11.762Z,67.98
2023-02-05T17:54:41.516Z,67.33
2023-02-05T17:57:27.832Z,67.20
2023-02-05T18:00:34.224Z,67.40
2023-02-05T18:03:11.769Z,67.73
2023-02-05T18:05:50.483Z,67.99
2023-02-05T18:08:38.797Z,67.59
2023-02-05T18:11:16.055Z,67.97
2023-02-05T18:13:53.130Z,69.62
2023-02-05T18:23:38.000Z,69.08
2023-02-05T18:26:11.163Z,70.01
2023-02-05T18:28:45.151Z,70.13
2023-02-05T18:31:45.801Z,69.20
2023-02-05T18:34:16.014Z,69.26
2023-02-05T18:36:48.932Z,68.88
2023-02-05T18:39:19.048Z,68.80
2023-02-05T18:41:51.991Z,69.34
2023-02-05T18:44:27.474Z,70.47
2023-02-05T18:47:02.760Z,70.44
2023-02-05T18:49:38.298Z,71.16
2023-02-05T18:52:13.215Z,71.46
2023-02-05T18:55:01.371Z,70.76
2023-02-05T18:57:37.916Z,70.50
2023-02-05T19:00:18.919Z,71.78
2023-02-05T19:03:06.614Z,72.46
2023-02-05T19:05:42.082Z,72.30
2023-02-05T19:08:13.204Z,71.04
2023-02-05T19:14:32.048Z,70.32
2023-02-05T19:17:07.458Z,71.36
2023-02-05T19:19:44.317Z,72.21
2023-02-05T19:22:31.099Z,71.24
2023-02-05T19:25:11.060Z,71.76
2023-02-05T19:27:47.091Z,72.56
2023-02-05T19:30:21.780Z,71.63
2023-02-05T19:33:07.939Z,70.80
2023-02-05T19:35:44.073Z,70.45
2023-02-05T19:38:16.550Z,70.17
2023-02-05T19:40:51.528Z,70.20
2023-02-05T19:43:24.328Z,70.11
2023-02-05T19:46:02.889Z,71.68
2023-02-05T19:48:39.313Z,72.19
2023-02-05T19:51:17.994Z,71.80
2023-02-05T19:53:55.359Z,71.41
2023-02-05T19:56:30.111Z,72.76
2023-02-05T19:59:00.433Z,72.90
2023-02-05T20:01:40.892Z,73.16
2023-02-05T20:04:22.034Z,72.48
2023-02-05T20:07:01.934Z,72.01
2023-02-05T20:09:46.103Z,71.05
2023-02-05T20:13:54.823Z,70.94
2023-02-05T20:16:31.069Z,71.75
2023-02-05T20:19:19.934Z,71.56
2023-02-05T20:21:51.304Z,71.20
2023-02-05T20:24:28.023Z,71.03
2023-02-05T20:27:01.560Z,71.57
2023-02-05T20:29:50.863Z,73.30
2023-02-05T20:32:49.398Z,72.85
2023-02-05T20:35:18.255Z,73.83
2023-02-05T20:37:47.269Z,73.96
2023-02-05T20:40:17.729Z,73.01
2023-02-05T20:42:48.590Z,73.39
2023-02-05T20:45:18.113Z,74.32
2023-02-05T20:47:47.673Z,73.54
2023-02-05T20:50:17.262Z,74.75
2023-02-05T20:52:49.634Z,74.00
2023-02-05T20:55:20.119Z,72.99
2023-02-05T20:57:49.712Z,73.37
2023-02-05T21:00:21.143Z,73.74
2023-02-05T21:02:50.279Z,74.84
2023-02-05T21:05:20.453Z,75.01
2023-02-05T21:07:49.410Z,75.20
2023-02-05T21:10:22.352Z,75.79
2023-02-05T21:12:51.331Z,75.64
2023-02-05T21:15:20.190Z,75.56
2023-02-05T21:17:49.095Z,74.30
2023-02-05T21:20:20.271Z,73.36
2023-02-05T21:22:49.493Z,73.08
2023-02-05T21:25:19.810Z,72.62
2023-02-05T21:27:55.084Z,72.44
2023-02-05T21:30:24.363Z,72.05
2023-02-05T21:32:55.011Z,71.79
2023-02-05T21:35:24.365Z,71.59
2023-02-05T21:37:53.573Z,71.60
2023-02-05T21:40:24.291Z,72.63
2023-02-05T21:42:53.535Z,72.48
2023-02-05T21:45:22.752Z,72.24
2023-02-05T21:47:51.887Z,71.86
2023-02-05T21:50:21.282Z,72.84
2023-02-05T21:52:50.403Z,72.32
2023-02-05T21:55:21.215Z,73.92
2023-02-05T21:57:51.769Z,74.80
2023-02-05T22:00:21.360Z,73.39
2023-02-05T22:02:50.329Z,72.89
2023-02-05T22:05:19.583Z,72.20
2023-02-05T22:07:48.661Z,72.73
2023-02-05T22:10:18.290Z,72.06
2023-02-05T22:12:47.537Z,72.15
2023-02-05T22:15:18.343Z,72.57
2023-02-05T22:17:47.070Z,73.80
2023-02-05T22:20:16.054Z,73.81
2023-02-05T22:22:44.779Z,74.08
2023-02-05T22:25:13.458Z,74.04
2023-02-05T22:27:42.926Z,73.33
2023-02-05T22:30:13.065Z,72.82
2023-02-05T22:32:43.231Z,73.26
2023-02-05T22:35:11.961Z,72.59
2023-02-05T22:37:40.715Z,72.36
2023-02-05T22:40:10.872Z,72.03
2023-02-05T22:42:39.660Z,71.95
2023-02-05T22:45:09.475Z,72.04
2023-02-05T22:47:38.453Z,72.60
2023-02-05T22:50:09.519Z,72.66
2023-02-05T22:52:38.328Z,72.22
2023-02-05T22:55:10.627Z,73.18
2023-02-05T22:57:39.521Z,74.50
2023-02-05T23:00:09.357Z,73.54
2023-02-05T23:02:38.255Z,73.82
2023-02-05T23:05:08.951Z,74.56
2023-02-05T23:07:37.978Z,74.57
2023-02-05T23:10:07.527Z,73.87
2023-02-05T23:12:36.985Z,72.90
2023-02-05T23:15:06.880Z,72.58
2023-02-05T23:17:36.291Z,72.54
2023-02-05T23:20:05.661Z,72.71
2023-02-05T23:22:36.964Z,73.07
2023-02-05T23:25:07.119Z,72.82
2023-02-05T23:27:37.991Z,72.42
2023-02-05T23:30:08.657Z,71.84
2023-02-05T23:32:37.477Z,72.22
2023-02-05T23:35:08.588Z,72.28
2023-02-05T23:37:39.464Z,73.15
2023-02-05T23:40:36.092Z,72.71
2023-02-05T23:43:04.964Z,72.96
2023-02-05T23:45:33.960Z,73.77
2023-02-05T23:48:20.106Z,72.59
2023-02-05T23:50:50.981Z,72.58
2023-02-05T23:53:22.384Z,72.28
2023-02-05T23:55:53.990Z,73.00
2023-02-05T23:58:26.148Z,73.18
